Time;durP1;ratioP1;P1;durP2;ratioP2;P2;SDS_P1;SDS_P2;PMS_P1;PMS_P2;Temp;Humidity;BMP_temperature;BMP_pressure;BME280_temperature;BME280_humidity;BME280_pressure;Samples;Min_cycle;Max_cycle;Signal;HPM_P1;HPM_P2
2022/11/09 00:00:45;;;;;;;5.37;2.47;;;;;;;-145.14;100.00;70583.66;4990824;28;20466;-75
2022/11/09 00:03:11;;;;;;;4.53;1.90;;;;;;;-145.14;100.00;70583.66;5004407;28;20196;-76
2022/11/09 00:05:37;;;;;;;3.30;1.70;;;;;;;-145.14;100.00;70583.66;4990322;28;20547;-76
2022/11/09 00:08:07;;;;;;;6.00;2.20;;;;;;;-145.14;100.00;70583.66;5006899;28;20206;-75
2022/11/09 00:10:33;;;;;;;3.73;1.60;;;;;;;-145.14;100.00;70583.66;5013255;28;20216;-75
2022/11/09 00:12:59;;;;;;;6.37;2.00;;;;;;;-145.14;100.00;70583.66;5013102;28;20447;-75
2022/11/09 00:15:24;;;;;;;4.23;1.73;;;;;;;-145.14;100.00;70583.66;4989820;28;20508;-75
2022/11/09 00:17:49;;;;;;;4.33;1.80;;;;;;;-145.14;100.00;70583.66;4985325;28;20205;-75
2022/11/09 00:20:15;;;;;;;6.63;1.73;;;;;;;-145.14;100.00;70583.66;4983703;28;20215;-76
2022/11/09 00:22:40;;;;;;;5.53;1.80;;;;;;;-145.14;100.00;70583.66;5015303;28;20281;-76
2022/11/09 00:25:06;;;;;;;4.87;2.10;;;;;;;-145.14;100.00;70583.66;4988552;28;20189;-75
2022/11/09 00:27:32;;;;;;;3.87;1.80;;;;;;;-145.14;100.00;70583.66;5021308;28;20188;-75
2022/11/09 00:29:57;;;;;;;6.83;2.27;;;;;;;-145.14;100.00;70583.66;5016233;28;20463;-75
2022/11/09 00:32:22;;;;;;;5.00;2.00;;;;;;;-145.14;100.00;70583.66;5022274;28;20231;-74
2022/11/09 00:34:48;;;;;;;3.20;1.70;;;;;;;-145.14;100.00;70583.66;5026870;28;20188;-74
2022/11/09 00:37:13;;;;;;;4.10;1.97;;;;;;;-145.14;100.00;70583.66;5019364;28;20294;-74
2022/11/09 00:39:38;;;;;;;3.60;2.20;;;;;;;-145.14;100.00;70583.66;4997191;28;20232;-75
2022/11/09 00:42:06;;;;;;;4.17;2.00;;;;;;;-145.14;100.00;70583.66;5013806;28;20200;-75
2022/11/09 00:44:31;;;;;;;3.17;1.97;;;;;;;-145.14;100.00;70583.66;4998257;28;20304;-75
2022/11/09 00:46:57;;;;;;;2.90;1.87;;;;;;;-145.14;100.00;70583.66;4996311;28;20431;-75
2022/11/09 00:49:22;;;;;;;3.70;1.70;;;;;;;-145.14;100.00;70583.66;5023988;28;20196;-75
2022/11/09 00:51:48;;;;;;;3.67;1.80;;;;;;;-145.14;100.00;70583.66;5021292;28;20231;-74
2022/11/09 00:54:13;;;;;;;5.87;2.30;;;;;;;-145.14;100.00;70583.66;5025931;28;20661;-75
2022/11/09 00:56:39;;;;;;;3.70;1.70;;;;;;;-145.14;100.00;70583.66;5012532;28;20245;-74
2022/11/09 00:59:10;;;;;;;6.27;2.10;;;;;;;-145.14;100.00;70583.66;4989342;28;20221;-75
2022/11/09 01:01:35;;;;;;;5.30;2.30;;;;;;;-145.14;100.00;70583.66;5005830;28;20843;-75
2022/11/09 01:04:01;;;;;;;4.70;1.90;;;;;;;-145.14;100.00;70583.66;5013833;28;20607;-75
2022/11/09 01:06:26;;;;;;;3.40;1.97;;;;;;;-145.14;100.00;70583.66;5010179;28;20196;-75
2022/11/09 01:08:52;;;;;;;3.70;2.00;;;;;;;-145.14;100.00;70583.66;4990357;28;20185;-76
2022/11/09 01:11:19;;;;;;;5.13;2.10;;;;;;;-145.14;100.00;70583.66;5009304;28;20208;-75
2022/11/09 01:13:45;;;;;;;9.00;1.80;;;;;;;-145.14;100.00;70583.66;5006269;28;20505;-75
2022/11/09 01:16:17;;;;;;;7.10;2.60;;;;;;;-145.14;100.00;70583.66;5018865;28;20559;-74
2022/11/09 01:18:43;;;;;;;6.60;2.50;;;;;;;-145.14;100.00;70583.66;5014964;28;20212;-74
2022/11/09 01:21:10;;;;;;;4.87;2.20;;;;;;;-145.14;100.00;70583.66;5009204;28;20498;-75
2022/11/09 01:23:37;;;;;;;6.63;2.37;;;;;;;-145.14;100.00;70583.66;4987337;28;20196;-75
2022/11/09 01:26:05;;;;;;;4.17;1.97;;;;;;;-145.14;100.00;70583.66;4992682;28;20978;-75
2022/11/09 01:28:30;;;;;;;7.03;2.13;;;;;;;-145.14;100.00;70583.66;5024649;22;20577;-76
2022/11/09 01:31:01;;;;;;;5.40;2.27;;;;;;;-145.14;100.00;70583.66;5052162;28;20626;-76
2022/11/09 01:33:27;;;;;;;2.70;1.60;;;;;;;-145.14;100.00;70583.66;5075385;28;20198;-76
2022/11/09 01:35:52;;;;;;;4.20;1.73;;;;;;;-145.14;100.00;70583.66;5047611;28;20442;-76
2022/11/09 01:38:17;;;;;;;10.03;2.43;;;;;;;-145.14;100.00;70583.66;5058896;28;20465;-76
2022/11/09 01:40:43;;;;;;;4.20;2.03;;;;;;;-145.14;100.00;70583.66;5046592;28;20245;-77
2022/11/09 01:43:20;;;;;;;7.20;1.97;;;;;;;-145.14;100.00;70583.66;5046714;28;20604;-78
2022/11/09 01:45:53;;;;;;;4.37;2.03;;;;;;;-145.14;100.00;70583.66;5046022;28;20620;-77
2022/11/09 01:48:51;;;;;;;6.60;2.00;;;;;;;-145.14;100.00;70583.66;5047052;28;20505;-78
2022/11/09 01:51:32;;;;;;;4.50;2.27;;;;;;;-145.14;100.00;70583.66;5043584;28;20465;-77
2022/11/09 01:54:14;;;;;;;4.93;2.30;;;;;;;-145.14;100.00;70583.66;5041719;28;20517;-77
2022/11/09 01:56:42;;;;;;;6.00;2.20;;;;;;;-145.14;100.00;70583.66;5040006;28;20520;-77
2022/11/09 01:59:13;;;;;;;4.23;2.10;;;;;;;-145.14;100.00;70583.66;5043130;28;20511;-78
2022/11/09 02:01:40;;;;;;;6.27;2.53;;;;;;;-145.14;100.00;70583.66;5041430;28;20442;-78
2022/11/09 02:04:19;;;;;;;6.43;2.60;;;;;;;-145.14;100.00;70583.66;5039735;28;20453;-78
2022/11/09 02:06:46;;;;;;;5.93;2.27;;;;;;;-145.14;100.00;70583.66;5054937;28;20448;-78
2022/11/09 02:09:17;;;;;;;4.83;2.00;;;;;;;-145.14;100.00;70583.66;5034930;28;20484;-78
2022/11/09 02:11:42;;;;;;;5.67;2.07;;;;;;;-145.14;100.00;70583.66;5033961;28;20464;-79
2022/11/09 02:14:08;;;;;;;5.00;1.80;;;;;;;-145.14;100.00;70583.66;5040251;28;20977;-79
2022/11/09 02:16:34;;;;;;;13.27;2.30;;;;;;;-145.14;100.00;70583.66;5041151;28;20199;-78
2022/11/09 02:19:00;;;;;;;6.87;2.10;;;;;;;-145.14;100.00;70583.66;5040581;28;20473;-79
2022/11/09 02:21:28;;;;;;;4.50;1.80;;;;;;;-145.14;100.00;70583.66;5041855;28;20545;-78
2022/11/09 02:23:54;;;;;;;3.83;1.80;;;;;;;-145.14;100.00;70583.66;5040906;28;20191;-79
2022/11/09 02:26:29;;;;;;;6.63;2.07;;;;;;;-145.14;100.00;70583.66;5039674;28;20513;-78
2022/11/09 02:28:57;;;;;;;5.00;2.00;;;;;;;-145.14;100.00;70583.66;5036665;28;20560;-79
2022/11/09 02:31:28;;;;;;;4.03;2.03;;;;;;;-145.14;100.00;70583.66;5040129;28;20466;-79
2022/11/09 02:33:58;;;;;;;6.57;2.10;;;;;;;-145.14;100.00;70583.66;5031172;28;20446;-81
2022/11/09 02:36:24;;;;;;;7.23;2.10;;;;;;;-145.14;100.00;70583.66;5035624;28;20441;-78
2022/11/09 02:38:53;;;;;;;7.10;2.37;;;;;;;-145.14;100.00;70583.66;5032951;28;20473;-79
2022/11/09 02:41:20;;;;;;;4.40;2.03;;;;;;;-145.14;100.00;70583.66;5030103;28;20203;-79
2022/11/09 02:43:46;;;;;;;6.87;1.83;;;;;;;-145.14;100.00;70583.66;5037060;28;20438;-78
2022/11/09 02:46:12;;;;;;;5.03;2.20;;;;;;;-145.14;100.00;70583.66;5036470;28;21010;-79
2022/11/09 02:48:37;;;;;;;5.50;2.13;;;;;;;-145.14;100.00;70583.66;5035449;28;20991;-79
2022/11/09 02:51:03;;;;;;;5.53;2.10;;;;;;;-145.14;100.00;70583.66;5034340;28;20188;-79
2022/11/09 02:53:28;;;;;;;5.73;2.00;;;;;;;-145.14;100.00;70583.66;5025887;28;20478;-79
2022/11/09 02:55:53;;;;;;;8.60;1.90;;;;;;;-145.14;100.00;70583.66;5023095;28;20191;-78
2022/11/09 02:58:19;;;;;;;11.67;1.90;;;;;;;-145.14;100.00;70583.66;5012536;28;20645;-79
2022/11/09 03:00:44;;;;;;;5.17;2.23;;;;;;;-145.14;100.00;70583.66;5023361;28;20216;-78
2022/11/09 03:03:10;;;;;;;5.40;1.73;;;;;;;-145.14;100.00;70583.66;5016415;28;20234;-78
2022/11/09 03:05:36;;;;;;;5.70;1.87;;;;;;;-145.14;100.00;70583.66;5036011;28;20535;-79
2022/11/09 03:08:02;;;;;;;4.80;1.97;;;;;;;-145.14;100.00;70583.66;5038406;28;20180;-80
2022/11/09 03:10:27;;;;;;;6.80;3.03;;;;;;;-145.14;100.00;70583.66;5037775;28;20464;-79
2022/11/09 03:12:53;;;;;;;8.30;2.60;;;;;;;-145.14;100.00;70583.66;5043237;28;20237;-80
2022/11/09 03:15:19;;;;;;;8.13;2.63;;;;;;;-145.14;100.00;70583.66;5038466;28;21129;-79
2022/11/09 03:17:44;;;;;;;5.63;2.37;;;;;;;-145.14;100.00;70583.66;5040476;28;20219;-78
2022/11/09 03:20:10;;;;;;;4.00;2.17;;;;;;;-145.14;100.00;70583.66;5039925;28;20218;-78
2022/11/09 03:22:35;;;;;;;3.70;1.70;;;;;;;-145.14;100.00;70583.66;5038377;28;20187;-78
2022/11/09 03:25:01;;;;;;;10.83;2.30;;;;;;;-145.14;100.00;70583.66;5034619;28;20191;-77
2022/11/09 03:27:26;;;;;;;4.00;1.83;;;;;;;-145.14;100.00;70583.66;5031600;28;20187;-77
2022/11/09 03:29:51;;;;;;;4.00;1.80;;;;;;;-145.14;100.00;70583.66;5042698;28;20208;-78
2022/11/09 03:32:17;;;;;;;6.20;2.00;;;;;;;-145.14;100.00;70583.66;5046148;28;20179;-78
2022/11/09 03:34:42;;;;;;;2.87;1.40;;;;;;;-145.14;100.00;70583.66;5045912;28;20245;-78
2022/11/09 03:37:08;;;;;;;5.33;1.90;;;;;;;-145.14;100.00;70583.66;5047648;28;20460;-78
2022/11/09 03:39:33;;;;;;;6.33;2.37;;;;;;;-145.14;100.00;70583.66;5040169;28;20711;-79
2022/11/09 03:41:58;;;;;;;4.77;1.77;;;;;;;-145.14;100.00;70583.66;5046788;28;20180;-77
2022/11/09 03:44:24;;;;;;;9.30;2.70;;;;;;;-145.14;100.00;70583.66;5047853;28;20263;-80
2022/11/09 03:46:49;;;;;;;13.10;2.30;;;;;;;-145.14;100.00;70583.66;5050624;28;20187;-78
2022/11/09 03:49:15;;;;;;;6.93;1.73;;;;;;;-145.14;100.00;70583.66;5044796;28;20218;-81
2022/11/09 03:51:40;;;;;;;14.37;2.60;;;;;;;-145.14;100.00;70583.66;5050361;28;20172;-77
2022/11/09 03:54:06;;;;;;;7.20;1.93;;;;;;;-145.14;100.00;70583.66;5050468;28;20186;-80
2022/11/09 03:56:31;;;;;;;14.57;2.40;;;;;;;-145.14;100.00;70583.66;5051216;28;20234;-80
2022/11/09 03:58:56;;;;;;;6.50;1.70;;;;;;;-145.14;100.00;70583.66;5044981;28;20282;-79
2022/11/09 04:01:22;;;;;;;6.47;2.17;;;;;;;-145.14;100.00;70583.66;5042878;28;20233;-80
2022/11/09 04:03:47;;;;;;;6.73;2.17;;;;;;;-145.14;100.00;70583.66;5043360;28;20202;-80
2022/11/09 04:06:13;;;;;;;4.43;1.80;;;;;;;-145.14;100.00;70583.66;5046476;28;20191;-78
2022/11/09 04:08:38;;;;;;;6.00;1.97;;;;;;;-145.14;100.00;70583.66;5042309;28;20184;-82
2022/11/09 04:11:03;;;;;;;4.67;1.93;;;;;;;-145.14;100.00;70583.66;5039224;28;20656;-78
2022/11/09 04:13:29;;;;;;;9.30;2.00;;;;;;;-145.14;100.00;70583.66;5055157;28;20683;-82
2022/11/09 04:15:54;;;;;;;8.83;2.50;;;;;;;-145.14;100.00;70583.66;5037844;28;20211;-81
2022/11/09 04:18:23;;;;;;;8.83;2.50;;;;;;;-145.14;100.00;70583.66;5035904;28;20217;-80
2022/11/09 04:20:48;;;;;;;7.63;1.97;;;;;;;-145.14;100.00;70583.66;5032932;28;20188;-80
2022/11/09 04:23:14;;;;;;;6.80;2.57;;;;;;;-145.14;100.00;70583.66;5036844;28;20952;-78
2022/11/09 04:25:40;;;;;;;8.30;2.00;;;;;;;-145.14;100.00;70583.66;5040700;28;20531;-79
2022/11/09 04:28:07;;;;;;;6.37;2.00;;;;;;;-145.14;100.00;70583.66;5041680;28;20211;-77
2022/11/09 04:30:34;;;;;;;6.87;2.30;;;;;;;-145.14;100.00;70583.66;5036780;28;20557;-77
2022/11/09 04:33:01;;;;;;;8.33;2.07;;;;;;;-145.14;100.00;70583.66;5032471;28;20438;-79
2022/11/09 04:35:28;;;;;;;6.90;2.00;;;;;;;-145.14;100.00;70583.66;5042578;28;20438;-80
2022/11/09 04:37:56;;;;;;;4.47;2.50;;;;;;;-145.14;100.00;70583.66;5040492;28;20567;-79
2022/11/09 04:40:23;;;;;;;9.10;1.93;;;;;;;-145.14;100.00;70583.66;5041593;28;20852;-80
2022/11/09 04:42:48;;;;;;;6.80;2.37;;;;;;;-145.14;100.00;70583.66;5057257;28;20961;-80
2022/11/09 04:45:14;;;;;;;6.30;1.97;;;;;;;-145.14;100.00;70583.66;5041890;28;20442;-78
2022/11/09 04:47:39;;;;;;;5.93;2.30;;;;;;;-145.14;100.00;70583.66;5053383;28;20303;-80
2022/11/09 04:50:05;;;;;;;14.03;2.43;;;;;;;-145.14;100.00;70583.66;5040360;28;20671;-78
2022/11/09 04:52:31;;;;;;;9.43;2.23;;;;;;;-145.14;100.00;70583.66;5038515;28;20557;-80
2022/11/09 04:54:56;;;;;;;9.93;2.00;;;;;;;-145.14;100.00;70583.66;5040769;28;20441;-79
2022/11/09 04:57:22;;;;;;;5.90;1.83;;;;;;;-145.14;100.00;70583.66;5042398;28;20672;-77
2022/11/09 04:59:47;;;;;;;11.07;1.87;;;;;;;-145.14;100.00;70583.66;5043004;28;20207;-80
2022/11/09 05:02:13;;;;;;;9.23;3.20;;;;;;;-145.14;100.00;70583.66;5043362;28;21037;-78
2022/11/09 05:04:38;;;;;;;6.53;1.63;;;;;;;-145.14;100.00;70583.66;5042332;28;20187;-79
2022/11/09 05:07:04;;;;;;;8.93;1.93;;;;;;;-145.14;100.00;70583.66;5041362;28;20215;-77
2022/11/09 05:09:29;;;;;;;11.90;2.43;;;;;;;-145.14;100.00;70583.66;5041851;28;20273;-77
2022/11/09 05:11:55;;;;;;;6.17;2.07;;;;;;;-145.14;100.00;70583.66;5042175;28;20553;-77
2022/11/09 05:14:20;;;;;;;6.00;1.97;;;;;;;-145.14;100.00;70583.66;5037380;28;20187;-79
2022/11/09 05:16:45;;;;;;;5.17;1.87;;;;;;;-145.14;100.00;70583.66;5039758;28;20374;-79
2022/11/09 05:19:11;;;;;;;9.20;2.30;;;;;;;-145.14;100.00;70583.66;5043202;28;20215;-79
2022/11/09 05:21:36;;;;;;;9.80;2.07;;;;;;;-145.14;100.00;70583.66;5045798;28;20563;-81
2022/11/09 05:24:02;;;;;;;7.83;2.30;;;;;;;-145.14;100.00;70583.66;5038913;28;20539;-78
2022/11/09 05:26:32;;;;;;;8.40;1.97;;;;;;;-145.14;100.00;70583.66;5036925;28;20183;-78
2022/11/09 05:28:59;;;;;;;7.27;2.37;;;;;;;-145.14;100.00;70583.66;5042519;28;20203;-78
2022/11/09 05:31:26;;;;;;;7.10;2.37;;;;;;;-145.14;100.00;70583.66;5043113;28;20430;-81
2022/11/09 05:33:52;;;;;;;7.57;2.50;;;;;;;-145.14;100.00;70583.66;5053421;28;20447;-79
2022/11/09 05:36:18;;;;;;;8.50;2.07;;;;;;;-145.14;100.00;70583.66;5042925;28;20804;-80
2022/11/09 05:38:44;;;;;;;5.33;2.17;;;;;;;-145.14;100.00;70583.66;5043442;28;20239;-78
2022/11/09 05:41:09;;;;;;;5.90;2.97;;;;;;;-145.14;100.00;70583.66;5042274;28;20462;-79
2022/11/09 05:43:35;;;;;;;8.43;2.77;;;;;;;-145.14;100.00;70583.66;5043150;28;20438;-80
2022/11/09 05:46:00;;;;;;;6.60;2.07;;;;;;;-145.14;100.00;70583.66;5044090;28;20187;-81
2022/11/09 05:48:25;;;;;;;7.60;2.57;;;;;;;-145.14;100.00;70583.66;5037100;28;20188;-80
2022/11/09 05:50:51;;;;;;;5.03;1.93;;;;;;;-145.14;100.00;70583.66;5036021;28;20223;-80
2022/11/09 05:56:38;;;;;;;7.00;2.55;;;;;;;-145.14;100.00;70583.66;5030524;28;20191;-81
2022/11/09 05:59:03;;;;;;;6.23;2.13;;;;;;;-145.14;100.00;70583.66;5042782;28;20498;-78
2022/11/09 06:01:29;;;;;;;5.90;2.63;;;;;;;-145.14;100.00;70583.66;5047139;28;20182;-81
2022/11/09 06:03:54;;;;;;;11.07;2.23;;;;;;;-145.14;100.00;70583.66;5047177;28;20225;-79
2022/11/09 06:06:20;;;;;;;8.50;2.47;;;;;;;-145.14;100.00;70583.66;5046104;28;20697;-82
2022/11/09 06:08:45;;;;;;;9.03;2.23;;;;;;;-145.14;100.00;70583.66;5045867;28;20274;-81
2022/11/09 06:11:12;;;;;;;6.60;2.57;;;;;;;-145.14;100.00;70583.66;5046005;28;20208;-80
2022/11/09 06:13:38;;;;;;;7.30;1.60;;;;;;;-145.14;100.00;70583.66;5044152;28;20207;-80
2022/11/09 06:16:05;;;;;;;15.63;2.00;;;;;;;-145.14;100.00;70583.66;5047513;28;20819;-79
2022/11/09 06:18:31;;;;;;;3.27;1.40;;;;;;;-145.14;100.00;70583.66;5045825;28;20287;-80
2022/11/09 06:21:00;;;;;;;6.77;2.20;;;;;;;-145.14;100.00;70583.66;5062799;28;20434;-80
2022/11/09 06:23:26;;;;;;;5.80;2.00;;;;;;;-145.14;100.00;70583.66;5042355;28;20440;-79
2022/11/09 06:25:59;;;;;;;11.07;2.40;;;;;;;-145.14;100.00;70583.66;5045528;28;20430;-81
2022/11/09 06:28:24;;;;;;;7.53;2.00;;;;;;;-145.14;100.00;70583.66;5046033;28;20426;-79
2022/11/09 06:30:50;;;;;;;5.93;2.10;;;;;;;-145.14;100.00;70583.66;5044751;28;20483;-80
2022/11/09 06:33:16;;;;;;;3.90;1.47;;;;;;;-145.14;100.00;70583.66;5047667;28;20179;-81
2022/11/09 06:35:41;;;;;;;11.00;2.40;;;;;;;-145.14;100.00;70583.66;5043602;28;20750;-83
2022/11/09 06:38:09;;;;;;;6.60;2.00;;;;;;;-145.14;100.00;70583.66;5045632;28;20295;-80
2022/11/09 06:40:35;;;;;;;6.83;2.60;;;;;;;-145.14;100.00;70583.66;5045329;28;20233;-82
2022/11/09 06:43:01;;;;;;;12.47;2.30;;;;;;;-145.14;100.00;70583.66;5040019;28;21006;-80
2022/11/09 06:45:28;;;;;;;8.07;2.13;;;;;;;-145.14;100.00;70583.66;5051699;28;20480;-80
2022/11/09 06:47:57;;;;;;;5.43;2.03;;;;;;;-145.14;100.00;70583.66;5049001;28;20483;-80
2022/11/09 06:50:24;;;;;;;8.40;2.00;;;;;;;-145.14;100.00;70583.66;5046532;28;20458;-81
2022/11/09 06:52:49;;;;;;;7.43;1.77;;;;;;;-145.14;100.00;70583.66;5051848;28;20442;-80
2022/11/09 06:55:15;;;;;;;9.53;2.30;;;;;;;-145.14;100.00;70583.66;5051333;28;20418;-82
2022/11/09 06:57:40;;;;;;;8.67;1.80;;;;;;;-145.14;100.00;70583.66;5049685;28;20212;-79
2022/11/09 07:00:06;;;;;;;8.83;2.30;;;;;;;-145.14;100.00;70583.66;5050543;28;20303;-78
2022/11/09 07:02:32;;;;;;;7.80;2.20;;;;;;;-145.14;100.00;70583.66;5050540;28;20600;-80
2022/11/09 07:04:58;;;;;;;8.43;1.60;;;;;;;-145.14;100.00;70583.66;5047452;28;20434;-79
2022/11/09 07:07:23;;;;;;;6.43;1.70;;;;;;;-145.14;100.00;70583.66;5046670;28;20426;-79
2022/11/09 07:09:49;;;;;;;6.60;2.30;;;;;;;-145.14;100.00;70583.66;5050028;28;20250;-80
2022/11/09 07:12:14;;;;;;;8.27;2.03;;;;;;;-145.14;100.00;70583.66;5048487;28;20455;-82
2022/11/09 07:14:39;;;;;;;8.40;2.07;;;;;;;-145.14;100.00;70583.66;5062088;28;20175;-80
2022/11/09 07:17:05;;;;;;;7.30;2.27;;;;;;;-145.14;100.00;70583.66;5048780;28;21036;-80
2022/11/09 07:19:30;;;;;;;6.00;1.90;;;;;;;-145.14;100.00;70583.66;5048650;28;20290;-81
2022/11/09 07:21:56;;;;;;;7.73;1.80;;;;;;;-145.14;100.00;70583.66;5050645;28;20636;-81
2022/11/09 07:24:22;;;;;;;5.13;1.80;;;;;;;-145.14;100.00;70583.66;5050248;28;20187;-80
2022/11/09 07:26:49;;;;;;;7.57;1.70;;;;;;;-145.14;100.00;70583.66;5048756;28;20921;-81
2022/11/09 07:29:15;;;;;;;9.63;2.13;;;;;;;-145.14;100.00;70583.66;5048525;28;21027;-79
2022/11/09 07:31:40;;;;;;;9.33;2.50;;;;;;;-145.14;100.00;70583.66;5048550;28;20462;-82
2022/11/09 07:34:06;;;;;;;9.33;2.40;;;;;;;-145.14;100.00;70583.66;5048976;28;20179;-80
2022/11/09 07:36:32;;;;;;;7.93;2.00;;;;;;;-145.14;100.00;70583.66;5052035;28;20176;-81
2022/11/09 07:38:58;;;;;;;6.73;2.00;;;;;;;-145.14;100.00;70583.66;5040645;28;20204;-80
2022/11/09 07:41:23;;;;;;;7.37;1.83;;;;;;;-145.14;100.00;70583.66;5044415;28;20442;-80
2022/11/09 07:43:48;;;;;;;4.63;1.60;;;;;;;-145.14;100.00;70583.66;5050307;28;20176;-80
2022/11/09 07:46:14;;;;;;;7.17;2.57;;;;;;;-145.14;100.00;70583.66;5048490;28;20263;-82
2022/11/09 07:48:40;;;;;;;6.23;2.03;;;;;;;-145.14;100.00;70583.66;5049065;28;20573;-80
2022/11/09 07:51:05;;;;;;;5.93;1.70;;;;;;;-145.14;100.00;70583.66;5050460;28;20267;-81
2022/11/09 07:53:31;;;;;;;8.70;1.83;;;;;;;-145.14;100.00;70583.66;5046771;28;20241;-79
2022/11/09 07:55:58;;;;;;;8.07;2.37;;;;;;;-145.14;100.00;70583.66;5046141;28;20198;-80
2022/11/09 07:58:23;;;;;;;8.27;2.20;;;;;;;-145.14;100.00;70583.66;5045762;28;20200;-83
2022/11/09 08:00:49;;;;;;;7.50;2.10;;;;;;;-145.14;100.00;70583.66;5064901;28;20433;-81
2022/11/09 08:03:17;;;;;;;11.07;2.43;;;;;;;-145.14;100.00;70583.66;5047962;28;20543;-81
2022/11/09 08:05:42;;;;;;;8.03;2.13;;;;;;;-145.14;100.00;70583.66;5048096;28;20180;-80
2022/11/09 08:08:10;;;;;;;8.70;2.23;;;;;;;-145.14;100.00;70583.66;5063943;28;20483;-80
2022/11/09 08:10:36;;;;;;;5.53;1.97;;;;;;;-145.14;100.00;70583.66;5065552;28;20652;-80
2022/11/09 08:13:04;;;;;;;5.30;2.00;;;;;;;-145.14;100.00;70583.66;5047898;28;20449;-80
2022/11/09 08:15:37;;;;;;;6.57;2.77;;;;;;;-145.14;100.00;70583.66;5051657;22;20232;-88
2022/11/09 08:18:13;;;;;;;7.53;2.10;;;;;;;-145.14;100.00;70583.66;5029467;28;20473;-90
2022/11/09 08:20:38;;;;;;;12.60;1.83;;;;;;;-145.14;100.00;70583.66;5031054;28;20457;-87
2022/11/09 08:23:04;;;;;;;10.80;2.47;;;;;;;-145.14;100.00;70583.66;5033641;28;20434;-88
2022/11/09 08:25:32;;;;;;;9.47;2.30;;;;;;;-145.14;100.00;70583.66;5018067;28;20549;-84
2022/11/09 08:27:58;;;;;;;5.53;2.00;;;;;;;-145.14;100.00;70583.66;5035205;28;20423;-88
2022/11/09 08:30:24;;;;;;;10.17;2.00;;;;;;;-145.14;100.00;70583.66;5020396;28;20435;-88
2022/11/09 08:32:49;;;;;;;7.10;1.90;;;;;;;-145.14;100.00;70583.66;5025502;28;20184;-87
2022/11/09 08:35:19;;;;;;;11.50;2.20;;;;;;;-145.14;100.00;70583.66;5024809;28;20210;-87
2022/11/09 08:37:45;;;;;;;9.10;2.20;;;;;;;-145.14;100.00;70583.66;5025821;28;20204;-87
2022/11/09 08:40:11;;;;;;;6.70;2.20;;;;;;;-145.14;100.00;70583.66;5041014;28;20457;-86
2022/11/09 08:42:37;;;;;;;12.03;3.10;;;;;;;-145.14;100.00;70583.66;5037067;28;20422;-90
2022/11/09 08:45:03;;;;;;;7.90;2.20;;;;;;;-145.14;100.00;70583.66;5037486;28;20520;-87
2022/11/09 08:47:28;;;;;;;9.37;2.37;;;;;;;-145.14;100.00;70583.66;5015946;28;20342;-89
2022/11/09 08:49:54;;;;;;;6.70;2.03;;;;;;;-145.14;100.00;70583.66;5014446;28;20435;-89
2022/11/09 08:52:20;;;;;;;11.77;2.90;;;;;;;-145.14;100.00;70583.66;5037375;28;20180;-88
2022/11/09 08:54:45;;;;;;;9.50;2.73;;;;;;;-145.14;100.00;70583.66;5032419;28;20486;-89
2022/11/09 08:57:11;;;;;;;7.37;2.20;;;;;;;-145.14;100.00;70583.66;5011562;28;20601;-89
2022/11/09 08:59:36;;;;;;;11.63;2.73;;;;;;;-145.14;100.00;70583.66;5010842;28;20191;-90
2022/11/09 09:02:02;;;;;;;12.87;3.60;;;;;;;-145.14;100.00;70583.66;5010306;28;20693;-89
2022/11/09 09:04:28;;;;;;;9.17;2.70;;;;;;;-145.14;100.00;70583.66;5013041;28;20200;-90
2022/11/09 09:06:54;;;;;;;9.90;2.73;;;;;;;-145.14;100.00;70583.66;5007560;28;20180;-90
2022/11/09 09:09:20;;;;;;;8.67;1.90;;;;;;;-145.14;100.00;70583.66;5023170;28;20797;-90
2022/11/09 09:11:45;;;;;;;10.60;2.87;;;;;;;-145.14;100.00;70583.66;5010319;28;20187;-90
2022/11/09 09:14:10;;;;;;;11.97;2.70;;;;;;;-145.14;100.00;70583.66;5026894;28;20197;-90
2022/11/09 09:16:36;;;;;;;9.50;2.60;;;;;;;-145.14;100.00;70583.66;5010525;28;20541;-91
2022/11/09 09:19:02;;;;;;;14.03;3.00;;;;;;;-145.14;100.00;70583.66;5004696;28;20209;-89
2022/11/09 09:21:27;;;;;;;10.03;2.27;;;;;;;-145.14;100.00;70583.66;5008626;28;20203;-90
2022/11/09 09:23:53;;;;;;;10.20;2.67;;;;;;;-145.14;100.00;70583.66;5004983;28;20181;-89
2022/11/09 09:26:18;;;;;;;9.17;2.60;;;;;;;-145.14;100.00;70583.66;5009652;28;20180;-89
2022/11/09 09:28:44;;;;;;;8.67;2.13;;;;;;;-145.14;100.00;70583.66;5007923;28;20426;-92
2022/11/09 09:31:09;;;;;;;8.53;2.50;;;;;;;-145.14;100.00;70583.66;5006887;28;20492;-89
2022/11/09 09:33:35;;;;;;;9.83;2.30;;;;;;;-145.14;100.00;70583.66;5008936;28;20214;-91
2022/11/09 09:36:01;;;;;;;10.53;2.43;;;;;;;-145.14;100.00;70583.66;5011009;28;20684;-89
2022/11/09 09:38:27;;;;;;;11.70;3.03;;;;;;;-145.14;100.00;70583.66;5005930;28;20196;-90
2022/11/09 09:41:01;;;;;;;14.93;3.00;;;;;;;-145.14;100.00;70583.66;5010067;28;20188;-91
2022/11/09 09:43:38;;;;;;;8.53;2.40;;;;;;;-145.14;100.00;70583.66;5006198;28;20439;-89
2022/11/09 09:46:12;;;;;;;13.37;2.77;;;;;;;-145.14;100.00;70583.66;5010279;28;20470;-90
2022/11/09 09:48:47;;;;;;;11.33;2.80;;;;;;;-145.14;100.00;70583.66;5008835;28;20475;-90
2022/11/09 09:51:21;;;;;;;9.73;2.77;;;;;;;-145.14;100.00;70583.66;5021556;28;20529;-92
2022/11/09 09:54:01;;;;;;;8.57;2.70;;;;;;;-145.14;100.00;70583.66;5007316;28;20430;-91
2022/11/09 09:56:33;;;;;;;10.30;2.70;;;;;;;-145.14;100.00;70583.66;5008334;28;20808;-90
2022/11/09 09:59:10;;;;;;;9.40;2.97;;;;;;;-145.14;100.00;70583.66;5010062;28;20509;-91
2022/11/09 10:01:39;;;;;;;12.97;2.93;;;;;;;-145.14;100.00;70583.66;5025216;28;20418;-90
2022/11/09 10:04:23;;;;;;;7.93;2.87;;;;;;;-145.14;100.00;70583.66;5009723;28;20474;-89
2022/11/09 10:07:23;;;;;;;8.77;2.33;;;;;;;-145.14;100.00;70583.66;5006090;28;20450;-91
2022/11/09 10:09:54;;;;;;;10.30;2.77;;;;;;;-145.14;100.00;70583.66;5002546;28;20936;-91
2022/11/09 10:12:41;;;;;;;9.80;2.97;;;;;;;-145.14;100.00;70583.66;5020468;28;20506;-91
2022/11/09 10:15:27;;;;;;;9.70;2.60;;;;;;;-145.14;100.00;70583.66;5008369;28;20455;-90
2022/11/09 10:17:55;;;;;;;14.57;2.80;;;;;;;-145.14;100.00;70583.66;5007766;28;20518;-90
2022/11/09 10:20:44;;;;;;;9.43;2.57;;;;;;;-145.14;100.00;70583.66;5011444;28;20854;-90
2022/11/09 10:23:13;;;;;;;11.73;3.07;;;;;;;-145.14;100.00;70583.66;5008803;28;20528;-91
2022/11/09 10:25:42;;;;;;;9.60;2.30;;;;;;;-145.14;100.00;70583.66;5006729;28;20585;-91
2022/11/09 10:28:12;;;;;;;8.40;2.83;;;;;;;-145.14;100.00;70583.66;5008529;28;20943;-92
2022/11/09 10:30:38;;;;;;;7.57;2.13;;;;;;;-145.14;100.00;70583.66;5022622;28;20428;-92
2022/11/09 10:33:09;;;;;;;11.00;2.10;;;;;;;-145.14;100.00;70583.66;5008427;28;20440;-93
2022/11/09 10:36:01;;;;;;;12.80;3.07;;;;;;;-145.14;100.00;70583.66;5010500;28;20537;-91
2022/11/09 10:38:42;;;;;;;11.77;2.80;;;;;;;-145.14;100.00;70583.66;5004485;28;20464;-90
2022/11/09 10:41:20;;;;;;;8.27;2.20;;;;;;;-145.14;100.00;70583.66;5010843;28;20438;-90
2022/11/09 10:43:46;;;;;;;8.80;2.17;;;;;;;-145.14;100.00;70583.66;5006569;28;20470;-90
2022/11/09 10:46:11;;;;;;;12.30;3.27;;;;;;;-145.14;100.00;70583.66;5001166;28;20490;-88
2022/11/09 10:48:38;;;;;;;8.90;2.93;;;;;;;-145.14;100.00;70583.66;5006087;28;20263;-87
2022/11/09 10:51:05;;;;;;;10.93;3.00;;;;;;;-145.14;100.00;70583.66;5023696;28;20652;-88
2022/11/09 10:53:32;;;;;;;5.37;2.20;;;;;;;-145.14;100.00;70583.66;5021995;28;20450;-89
2022/11/09 10:56:13;;;;;;;8.43;2.40;;;;;;;-145.14;100.00;70583.66;5016706;28;20617;-89
2022/11/09 10:58:45;;;;;;;11.53;2.67;;;;;;;-145.14;100.00;70583.66;5003027;28;20514;-88
2022/11/09 11:01:17;;;;;;;11.87;4.27;;;;;;;-145.14;100.00;70583.66;5021463;28;20868;-88
2022/11/09 11:03:44;;;;;;;15.83;3.20;;;;;;;-145.14;100.00;70583.66;5000213;28;20447;-89
2022/11/09 11:06:25;;;;;;;9.03;2.20;;;;;;;-145.14;100.00;70583.66;5003558;28;20459;-89
2022/11/09 11:09:12;;;;;;;8.20;2.37;;;;;;;-145.14;100.00;70583.66;5020038;28;20429;-89
2022/11/09 11:11:38;;;;;;;7.10;2.10;;;;;;;-145.14;100.00;70583.66;5017797;28;20434;-89